Time;durP1;ratioP1;P1;durP2;ratioP2;P2;SDS_P1;SDS_P2;PMS_P1;PMS_P2;Temp;Humidity;BMP_temperature;BMP_pressure;BME280_temperature;BME280_humidity;BME280_pressure;Samples;Min_cycle;Max_cycle;Signal;HPM_P1;HPM_P2
2023/03/13 00:01:34;;;;;;;37.90;6.53;;;8.40;99.90;;;;;;5075682;28;20084;-31
2023/03/13 00:04:00;;;;;;;31.10;4.90;;;8.50;99.90;;;;;;5075712;28;20044;-30
2023/03/13 00:06:31;;;;;;;27.10;5.75;;;8.50;99.90;;;;;;5075497;28;20082;-30
2023/03/13 00:08:59;;;;;;;43.05;5.97;;;8.50;99.90;;;;;;5075657;28;20131;-29
2023/03/13 00:11:26;;;;;;;25.23;5.45;;;8.40;99.90;;;;;;5075176;28;20491;-30
2023/03/13 00:13:59;;;;;;;31.48;5.88;;;8.50;99.90;;;;;;5074124;28;20048;-30
2023/03/13 00:16:26;;;;;;;32.75;5.35;;;8.50;99.90;;;;;;5075651;28;20127;-30
2023/03/13 00:18:53;;;;;;;26.15;5.82;;;8.50;99.90;;;;;;5075882;28;20053;-30
2023/03/13 00:21:22;;;;;;;48.38;8.45;;;8.40;99.90;;;;;;5075278;28;20052;-31
2023/03/13 00:23:48;;;;;;;27.13;5.45;;;8.50;99.90;;;;;;5074774;28;20483;-30
2023/03/13 00:26:20;;;;;;;28.60;5.03;;;8.30;99.90;;;;;;5076058;28;20049;-31
2023/03/13 00:28:47;;;;;;;30.73;6.38;;;8.20;99.90;;;;;;5075803;28;20056;-31
2023/03/13 00:31:17;;;;;;;27.38;5.88;;;8.20;99.90;;;;;;5057445;28;20092;-32
2023/03/13 00:33:46;;;;;;;27.63;5.85;;;8.50;99.90;;;;;;5075387;28;20055;-31
2023/03/13 00:36:23;;;;;;;28.90;7.18;;;8.10;99.90;;;;;;5075504;28;20046;-31
2023/03/13 00:38:52;;;;;;;27.95;6.03;;;8.30;99.90;;;;;;5074301;28;20055;-32
2023/03/13 00:41:20;;;;;;;36.35;6.35;;;8.10;99.90;;;;;;5074853;28;20044;-31
2023/03/13 00:43:47;;;;;;;30.65;5.68;;;8.30;99.90;;;;;;5075655;28;20428;-32
2023/03/13 00:46:15;;;;;;;41.40;6.28;;;8.40;99.90;;;;;;5074726;28;20486;-31
2023/03/13 00:48:41;;;;;;;32.17;6.90;;;8.10;99.90;;;;;;5075537;28;20055;-33
2023/03/13 00:51:07;;;;;;;36.70;7.30;;;8.00;99.90;;;;;;5074677;28;20494;-31
2023/03/13 00:53:33;;;;;;;31.35;6.13;;;8.20;99.90;;;;;;5074646;28;20049;-32
2023/03/13 00:56:05;;;;;;;26.92;5.60;;;8.00;99.90;;;;;;5074567;28;20051;-32
2023/03/13 00:58:34;;;;;;;29.27;5.88;;;8.30;99.90;;;;;;5074206;28;20044;-31
2023/03/13 01:01:18;;;;;;;35.58;8.10;;;8.20;99.90;;;;;;5074451;28;20486;-31
2023/03/13 01:03:46;;;;;;;29.05;8.05;;;8.20;99.90;;;;;;5075309;28;20079;-32
2023/03/13 01:06:16;;;;;;;33.13;7.07;;;8.40;99.90;;;;;;5056789;28;20051;-32
2023/03/13 01:08:42;;;;;;;30.75;6.60;;;8.30;99.90;;;;;;5074205;28;20154;-31
2023/03/13 01:11:14;;;;;;;33.10;7.10;;;8.20;99.90;;;;;;5074315;28;20044;-32
2023/03/13 01:13:40;;;;;;;32.88;6.75;;;8.20;99.90;;;;;;5074280;28;20047;-31
2023/03/13 01:16:13;;;;;;;32.80;7.47;;;8.40;99.90;;;;;;5074761;28;20052;-31
2023/03/13 01:18:41;;;;;;;40.50;7.20;;;8.40;99.90;;;;;;5073798;28;20454;-32
2023/03/13 01:21:07;;;;;;;38.50;7.25;;;8.30;99.90;;;;;;5074711;28;20135;-31
2023/03/13 01:23:33;;;;;;;28.45;6.70;;;8.40;99.90;;;;;;5073895;28;20040;-32
2023/03/13 01:25:59;;;;;;;31.67;6.30;;;8.50;99.90;;;;;;5072924;28;20544;-32
2023/03/13 01:28:26;;;;;;;33.20;6.50;;;8.50;99.90;;;;;;5074069;28;20098;-32
2023/03/13 01:30:52;;;;;;;27.35;5.75;;;8.50;99.90;;;;;;5074032;28;20041;-33
2023/03/13 01:33:18;;;;;;;36.38;7.53;;;8.10;99.90;;;;;;5056199;28;20052;-32
2023/03/13 01:35:44;;;;;;;31.23;6.07;;;8.30;99.90;;;;;;5073883;28;20052;-32
2023/03/13 01:38:10;;;;;;;37.30;7.10;;;8.30;99.90;;;;;;5072920;28;20045;-33
2023/03/13 01:40:54;;;;;;;36.47;7.45;;;8.30;99.90;;;;;;5074386;28;20102;-33
2023/03/13 01:43:23;;;;;;;29.85;6.57;;;8.20;99.90;;;;;;5074426;28;20040;-32
2023/03/13 01:46:05;;;;;;;28.13;6.03;;;8.60;99.90;;;;;;5073770;28;20052;-32
2023/03/13 01:48:37;;;;;;;28.98;5.22;;;8.60;99.90;;;;;;5073743;28;20044;-33
2023/03/13 01:51:08;;;;;;;20.02;5.82;;;8.30;99.90;;;;;;5074146;28;20055;-33
2023/03/13 01:53:35;;;;;;;33.65;7.28;;;8.60;99.90;;;;;;5073799;28;20055;-32
2023/03/13 01:56:04;;;;;;;32.63;6.25;;;8.30;99.90;;;;;;5073954;28;20459;-34
2023/03/13 01:58:30;;;;;;;23.73;5.32;;;8.40;99.90;;;;;;5073569;28;20071;-33
2023/03/13 02:00:57;;;;;;;43.50;8.30;;;8.60;99.90;;;;;;5073598;28;20088;-32
2023/03/13 02:03:24;;;;;;;27.50;6.32;;;8.40;99.90;;;;;;5073241;28;20398;-33
2023/03/13 02:05:50;;;;;;;25.35;5.32;;;8.60;99.90;;;;;;5072605;28;20048;-34
2023/03/13 02:08:39;;;;;;;25.05;6.05;;;8.40;99.90;;;;;;5074002;28;20040;-32
2023/03/13 02:11:44;;;;;;;26.85;6.03;;;8.40;99.90;;;;;;5072360;28;20058;-34
2023/03/13 02:14:13;;;;;;;23.85;6.72;;;8.40;99.90;;;;;;5073537;28;20486;-33
2023/03/13 02:16:46;;;;;;;28.83;6.00;;;8.60;99.90;;;;;;5073937;28;20048;-32
2023/03/13 02:19:32;;;;;;;24.50;5.32;;;8.80;99.90;;;;;;5073262;28;20049;-34
2023/03/13 02:22:14;;;;;;;27.30;5.72;;;8.10;99.90;;;;;;5072585;28;20076;-38
2023/03/13 02:24:56;;;;;;;33.25;6.05;;;8.80;99.90;;;;;;5073077;28;20057;-39
2023/03/13 02:27:22;;;;;;;26.55;5.43;;;8.90;99.90;;;;;;5073410;28;20535;-38
2023/03/13 02:29:48;;;;;;;25.40;5.53;;;9.10;99.90;;;;;;5073620;28;20079;-33
2023/03/13 02:32:14;;;;;;;15.55;4.55;;;8.40;99.90;;;;;;5075873;28;20048;-33
2023/03/13 02:34:43;;;;;;;14.55;4.15;;;8.70;99.90;;;;;;5078164;28;20044;-33
2023/03/13 02:37:12;;;;;;;23.83;5.53;;;9.10;99.90;;;;;;5076069;28;20128;-31
2023/03/13 02:39:45;;;;;;;18.50;4.28;;;9.00;99.90;;;;;;5077223;28;20123;-31
2023/03/13 02:42:13;;;;;;;14.52;4.75;;;8.00;99.90;;;;;;5077869;28;20041;-32
2023/03/13 02:44:40;;;;;;;17.73;6.25;;;8.50;99.90;;;;;;5077929;28;20143;-31
2023/03/13 02:47:09;;;;;;;18.98;5.55;;;8.30;99.90;;;;;;5077102;28;20044;-31
2023/03/13 02:49:35;;;;;;;16.85;4.13;;;9.20;99.90;;;;;;5077276;28;20071;-30
2023/03/13 02:52:18;;;;;;;15.20;5.45;;;8.40;99.90;;;;;;5076968;28;20475;-28
2023/03/13 02:54:48;;;;;;;8.13;2.42;;;8.10;99.90;;;;;;5076966;28;20047;-29
2023/03/13 02:57:14;;;;;;;14.38;3.67;;;8.10;99.90;;;;;;5075627;28;20494;-30
2023/03/13 02:59:40;;;;;;;14.18;3.55;;;8.20;99.90;;;;;;5076814;28;20044;-31
2023/03/13 03:02:06;;;;;;;10.45;3.13;;;8.30;99.90;;;;;;5076784;28;20048;-29
2023/03/13 03:04:32;;;;;;;21.27;4.40;;;9.10;99.90;;;;;;5076091;28;20044;-29
2023/03/13 03:06:57;;;;;;;9.93;3.65;;;8.20;99.90;;;;;;5076684;28;20076;-28
2023/03/13 03:09:24;;;;;;;11.10;3.20;;;8.50;99.90;;;;;;5076562;28;20048;-28
2023/03/13 03:11:49;;;;;;;15.48;3.75;;;8.10;99.90;;;;;;5076595;28;20040;-29
2023/03/13 03:14:15;;;;;;;12.48;4.05;;;9.50;99.90;;;;;;5076553;28;20051;-27
2023/03/13 03:16:41;;;;;;;9.65;3.95;;;9.60;99.90;;;;;;5076425;28;20048;-28
2023/03/13 03:19:08;;;;;;;13.30;4.55;;;8.40;99.90;;;;;;5077281;28;20055;-27
2023/03/13 03:21:34;;;;;;;6.80;2.83;;;8.50;99.90;;;;;;5076449;28;20113;-28
2023/03/13 03:24:00;;;;;;;8.50;3.63;;;8.30;99.90;;;;;;5076111;28;20422;-28
2023/03/13 03:26:26;;;;;;;11.30;3.65;;;9.50;99.90;;;;;;5076321;28;20488;-27
2023/03/13 03:28:52;;;;;;;10.68;3.80;;;8.40;99.90;;;;;;5076300;28;20078;-26
2023/03/13 03:31:18;;;;;;;16.08;4.55;;;8.50;99.90;;;;;;5076280;28;20070;-26
2023/03/13 03:33:44;;;;;;;9.52;3.70;;;8.80;99.90;;;;;;5076197;28;20044;-27
2023/03/13 03:36:16;;;;;;;7.93;3.90;;;9.50;99.90;;;;;;5076176;28;20044;-26
2023/03/13 03:38:42;;;;;;;9.15;3.92;;;8.60;99.90;;;;;;5076404;28;20067;-26
2023/03/13 03:41:09;;;;;;;9.63;3.55;;;8.30;99.90;;;;;;5076336;28;20048;-26
2023/03/13 03:43:35;;;;;;;7.80;3.78;;;9.30;99.90;;;;;;5075540;28;20052;-26
2023/03/13 03:46:02;;;;;;;5.82;2.85;;;9.60;99.90;;;;;;5075995;28;20048;-26
2023/03/13 03:48:28;;;;;;;8.18;3.13;;;8.50;99.90;;;;;;5075919;28;20080;-26
2023/03/13 03:50:54;;;;;;;10.48;4.80;;;9.70;99.90;;;;;;5075885;28;20075;-26
2023/03/13 03:53:20;;;;;;;10.73;5.03;;;9.80;99.90;;;;;;5075865;28;20045;-26
2023/03/13 03:55:46;;;;;;;9.73;4.65;;;9.70;99.90;;;;;;5075796;28;20041;-26
2023/03/13 03:58:11;;;;;;;11.98;5.20;;;9.00;99.90;;;;;;5075328;28;20068;-26
2023/03/13 04:00:37;;;;;;;7.75;4.40;;;9.60;99.90;;;;;;5075739;28;20386;-26
2023/03/13 04:03:03;;;;;;;7.88;4.13;;;9.30;99.90;;;;;;5075667;28;20044;-25
2023/03/13 04:05:29;;;;;;;5.63;3.63;;;10.10;99.90;;;;;;5076462;28;20066;-25
2023/03/13 04:07:57;;;;;;;8.25;4.35;;;10.20;99.90;;;;;;5075847;28;20490;-25
2023/03/13 04:10:23;;;;;;;7.10;4.18;;;10.30;99.90;;;;;;5076002;28;20051;-25
2023/03/13 04:12:49;;;;;;;7.45;4.13;;;9.40;99.90;;;;;;5075526;28;20490;-24
2023/03/13 04:15:14;;;;;;;7.70;3.95;;;9.00;99.90;;;;;;5075432;28;20055;-24
2023/03/13 04:17:40;;;;;;;8.82;4.45;;;8.90;99.90;;;;;;5075867;28;20040;-24
2023/03/13 04:20:07;;;;;;;8.13;4.78;;;9.00;99.90;;;;;;5075905;28;20087;-26
2023/03/13 04:22:33;;;;;;;7.53;6.03;;;9.00;99.90;;;;;;5075296;28;20131;-26
2023/03/13 04:24:59;;;;;;;8.18;5.32;;;9.20;99.90;;;;;;5074841;28;20135;-26
2023/03/13 04:27:25;;;;;;;11.75;7.03;;;10.30;99.90;;;;;;5075232;28;20052;-26
2023/03/13 04:29:50;;;;;;;11.02;7.35;;;10.50;99.90;;;;;;5073934;28;20052;-27
2023/03/13 04:32:16;;;;;;;10.45;6.40;;;10.50;99.90;;;;;;5041138;28;20048;-27
2023/03/13 04:34:42;;;;;;;12.38;8.55;;;10.40;99.90;;;;;;5073547;28;20076;-26
2023/03/13 04:37:07;;;;;;;9.80;6.57;;;9.30;99.90;;;;;;5075464;28;20074;-25
2023/03/13 04:39:33;;;;;;;15.98;9.95;;;9.40;99.90;;;;;;5075250;28;20080;-26
2023/03/13 04:41:59;;;;;;;12.18;8.45;;;9.40;99.90;;;;;;5075176;28;20044;-26
2023/03/13 04:44:25;;;;;;;14.18;8.23;;;10.90;99.90;;;;;;5074859;28;20056;-27
2023/03/13 04:46:50;;;;;;;15.10;8.70;;;9.60;99.90;;;;;;5074803;28;20136;-26
2023/03/13 04:49:16;;;;;;;16.90;10.00;;;10.00;99.90;;;;;;5075307;28;20040;-26
2023/03/13 04:51:43;;;;;;;13.45;8.40;;;11.00;99.90;;;;;;5074705;28;20056;-26
2023/03/13 04:54:09;;;;;;;13.80;7.65;;;11.30;99.90;;;;;;5073829;28;20059;-25
2023/03/13 04:56:35;;;;;;;16.30;9.32;;;10.10;99.90;;;;;;5074546;28;20076;-25
2023/03/13 04:59:01;;;;;;;11.38;6.53;;;11.10;99.90;;;;;;5074560;28;20157;-26
2023/03/13 05:01:27;;;;;;;12.40;7.30;;;11.30;99.90;;;;;;5074531;28;20045;-26
2023/03/13 05:03:52;;;;;;;14.80;7.85;;;10.80;99.90;;;;;;5073194;28;20109;-24
2023/03/13 05:06:18;;;;;;;12.25;6.90;;;11.20;99.90;;;;;;5073252;28;20084;-24
2023/03/13 05:08:44;;;;;;;16.70;6.93;;;11.50;99.90;;;;;;5074339;28;20467;-25
2023/03/13 05:11:10;;;;;;;15.45;8.18;;;11.20;99.90;;;;;;5075144;28;20432;-26
2023/03/13 05:13:36;;;;;;;14.55;7.10;;;10.40;99.90;;;;;;5073108;28;20056;-27
2023/03/13 05:16:02;;;;;;;14.13;7.57;;;10.40;99.90;;;;;;5074525;28;20044;-26
2023/03/13 05:18:28;;;;;;;13.00;6.70;;;11.30;99.90;;;;;;5074101;28;20127;-26
2023/03/13 05:20:54;;;;;;;12.80;5.72;;;11.20;99.90;;;;;;5074125;28;20055;-26
2023/03/13 05:23:20;;;;;;;18.30;6.22;;;10.50;99.90;;;;;;5074406;28;20049;-26
2023/03/13 05:25:45;;;;;;;13.90;5.35;;;10.60;99.90;;;;;;5074591;28;20052;-26
2023/03/13 05:28:11;;;;;;;23.60;7.50;;;10.40;99.90;;;;;;5073657;28;20048;-27
2023/03/13 05:30:37;;;;;;;14.48;5.28;;;11.30;99.90;;;;;;5073984;28;20524;-26
2023/03/13 05:33:03;;;;;;;10.05;5.20;;;11.00;99.90;;;;;;5073960;28;20050;-27
2023/03/13 05:35:29;;;;;;;12.75;5.07;;;10.40;99.90;;;;;;5073923;28;20090;-27
2023/03/13 05:37:54;;;;;;;13.20;4.90;;;10.40;99.90;;;;;;5072655;28;20048;-27
2023/03/13 05:40:20;;;;;;;12.18;4.40;;;10.50;99.90;;;;;;5074707;28;20056;-28
2023/03/13 05:42:46;;;;;;;10.48;5.00;;;10.80;99.90;;;;;;5074666;28;20569;-29
2023/03/13 05:45:14;;;;;;;6.00;3.38;;;10.60;99.90;;;;;;5072549;28;20501;-27
2023/03/13 05:47:40;;;;;;;10.15;3.90;;;11.40;99.90;;;;;;5072556;28;20044;-26
2023/03/13 05:50:07;;;;;;;10.40;4.20;;;10.50;99.90;;;;;;5072501;28;20525;-25
2023/03/13 05:52:34;;;;;;;14.52;3.97;;;11.30;99.90;;;;;;5073679;28;20058;-25
2023/03/13 05:54:59;;;;;;;17.75;4.53;;;10.70;99.90;;;;;;5073701;28;20118;-26
2023/03/13 05:57:25;;;;;;;11.75;4.45;;;11.60;99.90;;;;;;5074252;28;20084;-26
2023/03/13 05:59:51;;;;;;;14.23;6.10;;;10.60;99.90;;;;;;5072233;28;20141;-25
2023/03/13 06:02:17;;;;;;;9.73;4.43;;;11.50;99.90;;;;;;5072724;28;20055;-25
2023/03/13 06:04:42;;;;;;;23.20;5.97;;;11.60;99.90;;;;;;5072211;28;20052;-25
2023/03/13 06:07:08;;;;;;;16.95;4.65;;;10.60;99.90;;;;;;5073548;28;20037;-26
2023/03/13 06:09:34;;;;;;;9.07;3.95;;;11.10;99.90;;;;;;5073435;28;20057;-26
2023/03/13 06:12:00;;;;;;;13.38;4.55;;;10.90;99.90;;;;;;5072266;28;20052;-24
2023/03/13 06:14:25;;;;;;;11.65;3.38;;;10.70;99.90;;;;;;5055897;28;20110;-25
2023/03/13 06:16:53;;;;;;;6.03;3.22;;;10.90;99.90;;;;;;5073432;28;20044;-25
2023/03/13 06:19:21;;;;;;;20.20;5.00;;;11.60;99.90;;;;;;5073460;28;20123;-25
2023/03/13 06:21:47;;;;;;;16.15;5.10;;;11.60;99.90;;;;;;5073406;28;20059;-27
2023/03/13 06:24:13;;;;;;;17.05;5.57;;;11.10;99.90;;;;;;5073564;28;20052;-28
2023/03/13 06:26:38;;;;;;;15.48;4.15;;;11.10;99.90;;;;;;5073372;28;20044;-26
2023/03/13 06:29:04;;;;;;;18.38;3.95;;;11.30;99.90;;;;;;5073340;28;20052;-26
2023/03/13 06:31:30;;;;;;;15.68;4.68;;;11.60;99.90;;;;;;5072166;28;20048;-26
2023/03/13 06:33:56;;;;;;;12.43;3.75;;;11.50;99.90;;;;;;5073345;28;20052;-25
2023/03/13 06:36:23;;;;;;;24.77;4.53;;;10.50;99.90;;;;;;5072412;28;20045;-26
2023/03/13 06:38:49;;;;;;;12.82;3.47;;;11.20;99.90;;;;;;5073177;28;20040;-26
2023/03/13 06:41:17;;;;;;;15.23;4.18;;;10.80;99.90;;;;;;5039400;28;20041;-25
2023/03/13 06:43:43;;;;;;;10.82;3.88;;;10.10;99.90;;;;;;5073507;28;20091;-25
2023/03/13 06:46:17;;;;;;;21.70;3.75;;;10.50;99.90;;;;;;5072015;28;20106;-26
2023/03/13 06:48:43;;;;;;;15.30;4.43;;;11.20;99.90;;;;;;5073082;28;20084;-24
2023/03/13 06:51:13;;;;;;;14.85;3.95;;;10.70;99.90;;;;;;5073231;28;20124;-25
2023/03/13 06:53:39;;;;;;;13.10;4.05;;;10.30;99.90;;;;;;5073127;28;20040;-26
2023/03/13 06:56:06;;;;;;;11.25;3.83;;;10.70;99.90;;;;;;5073071;28;20538;-26
2023/03/13 06:58:32;;;;;;;18.95;4.05;;;10.30;99.90;;;;;;5073026;28;20048;-27
2023/03/13 07:01:08;;;;;;;13.38;4.15;;;10.50;99.90;;;;;;5073631;28;20057;-26
2023/03/13 07:03:34;;;;;;;11.77;3.63;;;10.60;99.90;;;;;;5073073;28;20048;-27
2023/03/13 07:06:00;;;;;;;10.05;4.32;;;11.00;99.90;;;;;;5073010;28;20102;-26
2023/03/13 07:08:27;;;;;;;11.55;3.95;;;10.50;99.90;;;;;;5072976;28;20036;-27
2023/03/13 07:11:04;;;;;;;6.32;2.88;;;10.40;99.90;;;;;;5073037;28;20052;-26
2023/03/13 07:13:30;;;;;;;21.75;3.88;;;10.80;99.90;;;;;;5073509;28;20048;-27
2023/03/13 07:16:03;;;;;;;13.13;3.88;;;10.70;99.90;;;;;;5072877;28;20109;-26
2023/03/13 07:18:29;;;;;;;10.90;3.38;;;10.60;99.90;;;;;;5075520;28;20375;-27
2023/03/13 07:20:57;;;;;;;10.32;3.65;;;10.70;99.90;;;;;;5042089;28;20053;-27
2023/03/13 07:23:25;;;;;;;8.80;2.97;;;10.70;99.90;;;;;;5075253;28;20075;-27
2023/03/13 07:26:02;;;;;;;10.65;2.95;;;10.80;99.90;;;;;;5076713;28;20060;-27
2023/03/13 07:28:31;;;;;;;16.40;3.80;;;10.60;99.90;;;;;;5077207;28;20070;-27
2023/03/13 07:31:11;;;;;;;9.52;3.63;;;10.50;99.90;;;;;;5076284;28;20058;-26
2023/03/13 07:33:37;;;;;;;6.57;2.20;;;10.90;99.90;;;;;;5077119;28;20141;-27
2023/03/13 07:36:03;;;;;;;10.68;3.88;;;10.60;99.90;;;;;;5075240;28;20051;-27
2023/03/13 07:38:29;;;;;;;10.57;3.50;;;11.00;99.90;;;;;;5076365;28;20044;-26
2023/03/13 07:40:56;;;;;;;12.68;3.00;;;10.60;99.90;;;;;;5075424;28;20229;-26
2023/03/13 07:43:23;;;;;;;10.60;3.85;;;10.70;99.90;;;;;;5076114;28;20051;-27
2023/03/13 07:45:59;;;;;;;10.23;3.63;;;10.90;99.90;;;;;;5076069;28;20098;-28
2023/03/13 07:48:28;;;;;;;10.38;2.90;;;10.70;99.90;;;;;;5076079;28;20056;-27
2023/03/13 07:50:55;;;;;;;11.60;3.63;;;10.70;99.90;;;;;;5075921;28;20111;-27
2023/03/13 07:53:29;;;;;;;7.65;3.15;;;10.80;99.90;;;;;;5076484;28;20101;-27
2023/03/13 07:56:09;;;;;;;8.43;2.75;;;10.80;99.90;;;;;;5075598;28;20401;-27
2023/03/13 07:58:39;;;;;;;12.27;4.05;;;10.80;99.90;;;;;;5075481;28;20559;-27
2023/03/13 08:01:10;;;;;;;7.57;3.00;;;10.90;99.90;;;;;;5075861;28;20045;-27
2023/03/13 08:03:36;;;;;;;8.77;3.53;;;10.90;99.90;;;;;;5074784;28;20131;-28
2023/03/13 08:06:13;;;;;;;13.82;3.60;;;10.90;99.90;;;;;;5076519;28;20127;-28
2023/03/13 08:08:39;;;;;;;9.75;3.15;;;10.90;99.90;;;;;;5075639;28;20048;-27
2023/03/13 08:11:09;;;;;;;10.93;2.80;;;11.00;99.90;;;;;;5076404;28;20048;-28
2023/03/13 08:13:35;;;;;;;8.30;2.30;;;11.00;99.90;;;;;;5076305;28;20041;-29
2023/03/13 08:16:07;;;;;;;10.10;2.45;;;11.00;99.90;;;;;;5075471;28;20079;-27
2023/03/13 08:18:34;;;;;;;9.68;2.22;;;11.00;99.90;;;;;;5074244;28;20036;-28
2023/03/13 08:21:11;;;;;;;9.48;2.90;;;11.00;99.90;;;;;;5057906;28;20052;-28
2023/03/13 08:23:37;;;;;;;7.00;2.20;;;11.00;99.90;;;;;;5076001;28;20048;-29
2023/03/13 08:26:09;;;;;;;10.45;1.95;;;11.20;99.90;;;;;;5073890;28;20388;-29
2023/03/13 08:28:38;;;;;;;7.90;1.65;;;11.30;99.90;;;;;;5075195;28;20091;-29
2023/03/13 08:31:21;;;;;;;10.93;2.78;;;11.50;99.90;;;;;;5074034;28;20040;-30
2023/03/13 08:33:47;;;;;;;8.52;2.28;;;11.80;99.90;;;;;;5075120;28;20045;-29
2023/03/13 08:36:24;;;;;;;7.00;1.92;;;11.80;99.90;;;;;;5074100;28;20052;-28
2023/03/13 08:38:52;;;;;;;5.82;1.75;;;12.00;99.90;;;;;;5075799;28;20033;-28
2023/03/13 08:41:20;;;;;;;6.40;2.00;;;12.10;99.90;;;;;;5074964;28;20371;-29
2023/03/13 08:43:47;;;;;;;8.38;2.15;;;12.20;99.90;;;;;;5074921;28;20049;-30
2023/03/13 08:46:13;;;;;;;6.68;1.80;;;12.30;99.90;;;;;;5074817;28;20044;-30
2023/03/13 08:48:39;;;;;;;7.63;2.20;;;12.40;99.90;;;;;;5075609;28;20045;-29
2023/03/13 08:51:07;;;;;;;5.85;1.73;;;12.50;99.90;;;;;;5073591;28;20048;-30
2023/03/13 08:53:35;;;;;;;5.97;2.03;;;12.50;99.90;;;;;;5075264;28;20080;-30
2023/03/13 08:56:03;;;;;;;8.82;2.05;;;12.60;99.90;;;;;;5073460;28;20087;-30
2023/03/13 08:58:30;;;;;;;12.18;2.28;;;12.60;99.90;;;;;;5074507;28;20474;-31
2023/03/13 09:01:09;;;;;;;5.05;2.08;;;12.60;99.90;;;;;;5074544;28;20044;-30
2023/03/13 09:03:35;;;;;;;15.90;2.10;;;12.60;99.90;;;;;;5074829;28;20099;-30
2023/03/13 09:06:01;;;;;;;8.93;1.98;;;12.60;99.90;;;;;;5074132;28;20375;-30
2023/03/13 09:08:28;;;;;;;5.38;1.52;;;12.70;99.90;;;;;;5074336;28;20040;-31
2023/03/13 09:10:58;;;;;;;5.55;1.75;;;12.80;99.90;;;;;;5074375;28;20044;-31
2023/03/13 09:13:25;;;;;;;9.02;1.75;;;12.70;99.90;;;;;;5073418;28;20506;-31
2023/03/13 09:15:59;;;;;;;7.50;1.58;;;12.70;99.90;;;;;;5075116;28;20098;-33
2023/03/13 09:18:26;;;;;;;8.90;1.98;;;12.60;99.90;;;;;;5073578;28;20044;-32
2023/03/13 09:20:52;;;;;;;4.90;1.40;;;12.70;99.90;;;;;;5074169;28;20056;-31
2023/03/13 09:23:19;;;;;;;5.88;1.88;;;12.70;99.90;;;;;;5074128;28;20052;-34
2023/03/13 09:25:47;;;;;;;6.30;1.83;;;12.70;99.90;;;;;;5073726;28;20057;-32
2023/03/13 09:28:13;;;;;;;6.35;1.30;;;12.80;99.90;;;;;;5074127;28;20056;-32
2023/03/13 09:30:39;;;;;;;8.35;1.77;;;12.80;99.90;;;;;;5072891;28;20041;-32
2023/03/13 09:33:05;;;;;;;8.02;1.83;;;12.80;99.90;;;;;;5074016;28;20487;-33
2023/03/13 09:35:33;;;;;;;13.00;2.28;;;12.70;99.90;;;;;;5074036;28;20052;-33
2023/03/13 09:37:59;;;;;;;10.88;2.53;;;12.40;99.90;;;;;;5072977;28;20036;-32
2023/03/13 09:40:26;;;;;;;11.70;2.63;;;12.10;99.90;;;;;;5074030;28;20467;-33
2023/03/13 09:42:59;;;;;;;12.68;2.33;;;11.70;99.90;;;;;;5074690;28;20053;-31
2023/03/13 09:45:32;;;;;;;;;;;11.50;99.90;;;;;;5074940;28;20048;-31
2023/03/13 09:48:04;;;;;;;10.27;2.40;;;11.50;99.90;;;;;;5074183;28;20389;-31
2023/03/13 09:50:42;;;;;;;9.25;2.92;;;11.60;99.90;;;;;;5073234;28;20127;-31
2023/03/13 09:53:23;;;;;;;12.85;3.65;;;11.80;99.90;;;;;;5073426;28;20131;-31
2023/03/13 09:55:51;;;;;;;15.50;3.58;;;11.80;99.90;;;;;;5073792;28;20084;-31
2023/03/13 09:58:21;;;;;;;16.98;3.78;;;12.00;99.90;;;;;;5073905;28;20044;-31
2023/03/13 10:00:55;;;;;;;9.98;2.55;;;12.20;99.90;;;;;;5073759;28;20045;-31
2023/03/13 10:03:43;;;;;;;9.93;2.40;;;12.90;99.90;;;;;;5073589;28;20055;-32
2023/03/13 10:06:20;;;;;;;13.65;3.20;;;13.40;99.90;;;;;;5074246;28;20040;-32
2023/03/13 10:08:46;;;;;;;6.05;1.52;;;13.60;99.90;;;;;;5072606;28;20044;-33
2023/03/13 10:11:17;;;;;;;11.02;3.80;;;13.80;99.90;;;;;;5072411;28;20458;-33
2023/03/13 10:14:06;;;;;;;11.90;2.58;;;14.00;99.90;;;;;;5074455;28;20051;-33
2023/03/13 10:16:47;;;;;;;10.68;2.72;;;14.20;99.90;;;;;;5073847;28;20076;-37
2023/03/13 10:19:24;;;;;;;13.35;3.30;;;14.00;99.90;;;;;;5073551;28;20045;-38
2023/03/13 10:21:56;;;;;;;12.55;3.75;;;14.30;99.90;;;;;;5073743;28;20398;-33
2023/03/13 10:24:36;;;;;;;12.13;2.55;;;14.30;99.90;;;;;;5073564;28;20098;-34
2023/03/13 10:27:02;;;;;;;13.70;3.15;;;14.00;99.90;;;;;;5073462;28;20088;-36
2023/03/13 10:29:30;;;;;;;14.00;2.85;;;13.80;99.90;;;;;;5073394;28;20084;-38
2023/03/13 10:32:02;;;;;;;14.60;3.15;;;14.00;99.90;;;;;;5073688;28;20051;-38
2023/03/13 10:34:57;;;;;;;14.73;3.07;;;14.10;99.90;;;;;;5073370;28;20059;-39
2023/03/13 10:37:32;;;;;;;14.98;3.05;;;14.10;99.90;;;;;;5072775;28;20307;-40
2023/03/13 10:40:30;;;;;;;14.93;3.03;;;14.10;99.90;;;;;;5072425;28;20098;-39
2023/03/13 10:43:17;;;;;;;12.23;2.97;;;14.00;99.90;;;;;;5072427;28;20131;-41
2023/03/13 10:45:43;;;;;;;11.60;2.80;;;14.00;99.90;;;;;;5073138;28;20124;-40
2023/03/13 10:48:17;;;;;;;15.15;3.42;;;14.00;99.90;;;;;;5073168;28;20080;-37
2023/03/13 10:50:45;;;;;;;12.20;2.92;;;14.00;99.90;;;;;;5073256;28;20053;-41
2023/03/13 10:53:35;;;;;;;18.52;3.88;;;13.90;99.90;;;;;;5075831;28;20051;-40
2023/03/13 10:56:13;;;;;;;14.98;3.50;;;14.00;99.90;;;;;;5077624;28;20040;-38
2023/03/13 10:58:45;;;;;;;13.70;3.50;;;13.90;99.90;;;;;;5077403;28;20083;-40
2023/03/13 11:01:27;;;;;;;15.85;3.60;;;13.70;99.90;;;;;;5076868;28;20059;-40
2023/03/13 11:03:56;;;;;;;17.77;4.80;;;13.70;99.90;;;;;;5077729;28;20049;-39
2023/03/13 11:06:34;;;;;;;12.00;2.70;;;13.60;99.90;;;;;;5077364;28;20528;-41
2023/03/13 11:09:13;;;;;;;15.38;3.20;;;13.70;99.90;;;;;;5076641;28;20137;-39
2023/03/13 11:11:49;;;;;;;11.95;2.45;;;13.70;99.90;;;;;;5075757;28;20398;-40
2023/03/13 11:14:20;;;;;;;20.20;3.97;;;13.80;99.90;;;;;;5075954;28;20053;-41
2023/03/13 11:16:49;;;;;;;12.98;3.25;;;13.90;99.90;;;;;;5077395;28;20049;-41
2023/03/13 11:19:27;;;;;;;10.45;4.03;;;13.90;99.90;;;;;;5076480;28;20056;-38
2023/03/13 11:21:58;;;;;;;9.80;2.22;;;14.00;99.90;;;;;;5076536;28;20049;-40
2023/03/13 11:24:41;;;;;;;10.65;2.38;;;14.20;99.90;;;;;;5074869;28;20064;-40
2023/03/13 11:27:36;;;;;;;10.13;2.90;;;14.40;99.90;;;;;;5076481;28;20060;-41
2023/03/13 11:30:38;;;;;;;13.52;3.70;;;14.60;99.90;;;;;;5077239;28;20075;-40
2023/03/13 11:33:16;;;;;;;8.75;2.38;;;14.70;99.90;;;;;;5076679;28;20045;-38
2023/03/13 11:36:12;;;;;;;10.88;2.70;;;14.80;99.90;;;;;;5076859;28;20050;-40
2023/03/13 11:38:45;;;;;;;12.35;2.58;;;14.90;99.90;;;;;;5076123;28;20135;-40
2023/03/13 11:41:33;;;;;;;12.07;2.72;;;14.70;99.90;;;;;;5075629;28;20053;-40
2023/03/13 11:44:28;;;;;;;17.67;2.58;;;14.70;99.90;;;;;;5076437;28;20045;-37
2023/03/13 11:47:22;;;;;;;8.10;2.25;;;14.70;99.90;;;;;;5076125;28;20058;-39
2023/03/13 11:49:52;;;;;;;9.77;2.55;;;14.70;99.90;;;;;;5075454;28;20414;-38
2023/03/13 11:52:30;;;;;;;8.90;2.50;;;14.70;99.90;;;;;;5075980;28;20060;-34
2023/03/13 11:55:12;;;;;;;11.68;2.90;;;14.60;99.90;;;;;;5075987;28;20040;-38
2023/03/13 11:57:51;;;;;;;12.32;2.60;;;14.60;99.90;;;;;;5076647;28;20102;-37
2023/03/13 12:00:29;;;;;;;13.85;2.72;;;14.50;99.90;;;;;;5075740;28;20048;-34
2023/03/13 12:03:15;;;;;;;18.85;3.70;;;14.40;99.90;;;;;;5076267;28;20055;-33
2023/03/13 12:05:50;;;;;;;15.68;2.70;;;14.30;99.90;;;;;;5064626;28;20371;-33
2023/03/13 12:08:22;;;;;;;12.25;2.40;;;14.00;99.90;;;;;;5075760;28;20047;-34
2023/03/13 12:11:32;;;;;;;17.17;2.80;;;13.90;99.90;;;;;;5075677;28;20053;-32
2023/03/13 12:14:08;;;;;;;17.45;2.63;;;13.90;99.90;;;;;;5075575;28;20398;-34
2023/03/13 12:16:43;;;;;;;11.77;2.40;;;13.90;99.90;;;;;;5076137;28;20049;-32
2023/03/13 12:19:21;;;;;;;13.32;3.28;;;13.80;99.90;;;;;;5075945;28;20463;-35
2023/03/13 12:21:56;;;;;;;11.52;2.88;;;13.80;99.90;;;;;;5075462;28;20040;-33
2023/03/13 12:24:35;;;;;;;15.50;3.03;;;13.90;99.90;;;;;;5075214;28;20060;-34
2023/03/13 12:27:21;;;;;;;12.48;2.92;;;14.00;99.90;;;;;;5075324;28;20049;-33
2023/03/13 12:29:57;;;;;;;11.63;3.45;;;14.00;99.90;;;;;;5076111;28;20052;-33
2023/03/13 12:32:45;;;;;;;13.38;2.75;;;14.10;99.90;;;;;;5075241;28;20053;-31
2023/03/13 12:35:23;;;;;;;10.27;2.70;;;14.10;99.90;;;;;;5073958;28;20151;-31
2023/03/13 12:38:14;;;;;;;13.68;3.08;;;14.20;99.90;;;;;;5074989;28;20055;-30
2023/03/13 12:41:14;;;;;;;13.10;3.35;;;14.10;99.90;;;;;;5075032;28;20041;-30
2023/03/13 12:43:43;;;;;;;14.80;3.55;;;14.10;99.90;;;;;;5055913;28;20045;-30
2023/03/13 12:46:21;;;;;;;11.60;3.00;;;14.10;99.90;;;;;;5053916;28;20064;-30
2023/03/13 12:48:50;;;;;;;15.63;3.30;;;14.10;99.90;;;;;;5054920;28;20037;-30
2023/03/13 12:52:15;;;;;;;11.18;3.88;;;14.30;99.90;;;;;;5053875;28;20391;-33
2023/03/13 12:55:25;;;;;;;15.10;3.72;;;14.20;99.90;;;;;;5052363;28;20040;-33
2023/03/13 12:58:29;;;;;;;19.00;3.95;;;14.30;99.90;;;;;;5031910;28;20061;-32
2023/03/13 13:01:01;;;;;;;11.82;2.88;;;14.10;99.90;;;;;;5054692;28;20044;-33
2023/03/13 13:03:32;;;;;;;17.98;3.63;;;14.10;99.90;;;;;;5062709;28;20053;-32